Teide Spirit — ECHE — position and weather

sailwx.info

Track history (hours):
 
Tides and Currents Weather Stations Pressure Air Temp Water Temp Dewpoint Dewpoint Depression Visibility Wind Speed Wind Dir Waves Ship Positions

Teide Spirit

Last reported at 2017-Oct-22 21:18 UTC. Time now 2017-Oct-23 08:20 UTC.
Position N 36°26' E 013°56'.

Length 274 m; draft 15.4 m.

Type: Tanker. MMSI: 224794000.

Date/timePositionNaut miles runAvg speedWind from/ knotsBaromVisibWave heightAir tempDewpointWater temp
2017-Oct-22 21:18N 36°26' E 013°56'412.6
2017-Oct-22 21:00N 36°25' E 014°00'612.6
2017-Oct-22 20:31N 36°23' E 014°07'612.4
2017-Oct-22 20:00N 36°21' E 014°15'612.3
2017-Oct-22 19:30N 36°20' E 014°22'612.1
2017-Oct-22 19:00N 36°18' E 014°30'612.1
2017-Oct-22 18:30N 36°16' E 014°37'612.4
2017-Oct-22 18:00N 36°15' E 014°44'612.3
2017-Oct-22 17:28N 36°13' E 014°52'1812.1
2017-Oct-22 15:59N 36°09' E 015°14'712.5
2017-Oct-22 15:27N 36°08' E 015°22'1312.7
2017-Oct-22 14:24N 36°05' E 015°38'512.9
2017-Oct-22 14:00N 36°04' E 015°44'1413.2
2017-Oct-22 12:55N 36°01' E 016°01'  
2017-Oct-14 22:15N 36°04' E 015°23'414.6
2017-Oct-14 22:00N 36°04' E 015°19'1014.5
2017-Oct-14 21:20N 36°06' E 015°08'514.5
2017-Oct-14 21:00N 36°07' E 015°02'714.8
2017-Oct-14 20:30N 36°09' E 014°53'714.9
2017-Oct-14 20:00N 36°12' E 014°44'714.8
2017-Oct-14 19:30N 36°14' E 014°35'714.9
2017-Oct-14 19:00N 36°15' E 014°26'814.9
2017-Oct-14 18:30N 36°17' E 014°17'714.9
2017-Oct-14 18:00N 36°19' E 014°08'714.8
2017-Oct-14 17:31N 36°21' E 013°60'814.9
2017-Oct-14 17:00N 36°24' E 013°51'714.8
2017-Oct-14 16:30N 36°27' E 013°42'2114.6
2017-Oct-14 15:03N 36°35' E 013°18'214.6
2017-Oct-14 14:55N 36°36' E 013°16'3114.3
2017-Oct-14 12:45N 36°47' E 012°40'1114.4
2017-Oct-14 11:59N 36°51' E 012°27'28714.0
2017-Oct-13 15:34N 37°17' E 006°29'114.7
2017-Oct-13 15:30N 37°17' E 006°28'714.3
2017-Oct-13 15:00N 37°16' E 006°19'714.4
2017-Oct-13 14:30N 37°16' E 006°10'714.5
2017-Oct-13 14:00N 37°16' E 006°01'714.7
2017-Oct-13 13:30N 37°15' E 005°51'714.4
2017-Oct-13 13:00N 37°15' E 005°42'814.2
2017-Oct-13 12:28N 37°14' E 005°33'3214.3
2017-Oct-13 10:15N 37°13' E 004°53'8714.6
2017-Oct-13 04:18N 37°04' E 003°05'514.9
2017-Oct-13 03:59N 37°03' E 002°59'714.7
2017-Oct-13 03:30N 37°00' E 002°51'714.9
2017-Oct-13 03:00N 36°59' E 002°42'1414.7
2017-Oct-13 02:05N 36°56' E 002°25'214.6
2017-Oct-13 01:55N 36°56' E 002°22'614.7
2017-Oct-13 01:29N 36°54' E 002°14'714.8
2017-Oct-13 01:00N 36°53' E 002°06'1114.9
2017-Oct-13 00:14N 36°50' E 001°52'314.9
2017-Oct-13 00:00N 36°49' E 001°47'714.8
2017-Oct-12 23:30N 36°48' E 001°38'714.6
2017-Oct-12 23:00N 36°47' E 001°29'714.6
2017-Oct-12 22:30N 36°45' E 001°20'1414.1
2017-Oct-12 21:32N 36°41' E 001°04'013.9
2017-Oct-12 21:30N 36°40' E 001°04'  
Track history (hours):
 
Tides and Currents Weather Stations Pressure Air Temp Water Temp Dewpoint Dewpoint Depression Visibility Wind Speed Wind Dir Waves Ship Positions

Teide Spirit

Last reported at 2017-Oct-22 21:18 UTC. Time now 2017-Oct-23 08:20 UTC.
Position N 36°26' E 013°56'.

Length 274 m; draft 15.4 m.

Type: Tanker. MMSI: 224794000.

Date/timePositionNaut miles runAvg speedWind from/ knotsBaromVisibWave heightAir tempDewpointWater temp
2017-Oct-22 21:18N 36°26' E 013°56'412.6
2017-Oct-22 21:00N 36°25' E 014°00'612.6
2017-Oct-22 20:31N 36°23' E 014°07'612.4
2017-Oct-22 20:00N 36°21' E 014°15'612.3
2017-Oct-22 19:30N 36°20' E 014°22'612.1
2017-Oct-22 19:00N 36°18' E 014°30'612.1
2017-Oct-22 18:30N 36°16' E 014°37'612.4
2017-Oct-22 18:00N 36°15' E 014°44'612.3
2017-Oct-22 17:28N 36°13' E 014°52'1812.1
2017-Oct-22 15:59N 36°09' E 015°14'712.5
2017-Oct-22 15:27N 36°08' E 015°22'1312.7
2017-Oct-22 14:24N 36°05' E 015°38'512.9
2017-Oct-22 14:00N 36°04' E 015°44'1413.2
2017-Oct-22 12:55N 36°01' E 016°01'  
2017-Oct-14 22:15N 36°04' E 015°23'414.6
2017-Oct-14 22:00N 36°04' E 015°19'1014.5
2017-Oct-14 21:20N 36°06' E 015°08'514.5
2017-Oct-14 21:00N 36°07' E 015°02'714.8
2017-Oct-14 20:30N 36°09' E 014°53'714.9
2017-Oct-14 20:00N 36°12' E 014°44'714.8
2017-Oct-14 19:30N 36°14' E 014°35'714.9
2017-Oct-14 19:00N 36°15' E 014°26'814.9
2017-Oct-14 18:30N 36°17' E 014°17'714.9
2017-Oct-14 18:00N 36°19' E 014°08'714.8
2017-Oct-14 17:31N 36°21' E 013°60'814.9
2017-Oct-14 17:00N 36°24' E 013°51'714.8
2017-Oct-14 16:30N 36°27' E 013°42'2114.6
2017-Oct-14 15:03N 36°35' E 013°18'214.6
2017-Oct-14 14:55N 36°36' E 013°16'3114.3
2017-Oct-14 12:45N 36°47' E 012°40'1114.4
2017-Oct-14 11:59N 36°51' E 012°27'28714.0
2017-Oct-13 15:34N 37°17' E 006°29'114.7
2017-Oct-13 15:30N 37°17' E 006°28'714.3
2017-Oct-13 15:00N 37°16' E 006°19'714.4
2017-Oct-13 14:30N 37°16' E 006°10'714.5
2017-Oct-13 14:00N 37°16' E 006°01'714.7
2017-Oct-13 13:30N 37°15' E 005°51'714.4
2017-Oct-13 13:00N 37°15' E 005°42'814.2
2017-Oct-13 12:28N 37°14' E 005°33'3214.3
2017-Oct-13 10:15N 37°13' E 004°53'8714.6
2017-Oct-13 04:18N 37°04' E 003°05'514.9
2017-Oct-13 03:59N 37°03' E 002°59'714.7
2017-Oct-13 03:30N 37°00' E 002°51'714.9
2017-Oct-13 03:00N 36°59' E 002°42'1414.7
2017-Oct-13 02:05N 36°56' E 002°25'214.6
2017-Oct-13 01:55N 36°56' E 002°22'614.7
2017-Oct-13 01:29N 36°54' E 002°14'714.8
2017-Oct-13 01:00N 36°53' E 002°06'1114.9
2017-Oct-13 00:14N 36°50' E 001°52'314.9
2017-Oct-13 00:00N 36°49' E 001°47'714.8
2017-Oct-12 23:30N 36°48' E 001°38'714.6
2017-Oct-12 23:00N 36°47' E 001°29'714.6
2017-Oct-12 22:30N 36°45' E 001°20'1414.1
2017-Oct-12 21:32N 36°41' E 001°04'013.9
2017-Oct-12 21:30N 36°40' E 001°04'  

Dump ship's entire track history